Terminal Aerodrome Forecast
Issued by NWS

Home | Current Version | Previous Version | Text Only | Print | Product List | Glossary On
Versions: 1 2 3 4 5 6 7 8 9 10 11 12 13 14 15 16 17 18 19 20 21 22 23 24 25 26 27 28 29 30
000
FTUS43 KDTX 242320
TAFPTK
TAF
KPTK 242320Z 2500/2524 08005KT P6SM SCT150
     FM250300 10005KT P6SM BKN150
     FM250700 12004KT P6SM BKN080 OVC120
     FM251100 13006KT P6SM OVC120
     FM252100 07009KT P6SM OVC080=

USA.gov is the U.S. government's official web portal to all federal, state and local government web resources and services.